Time;durP1;ratioP1;P1;durP2;ratioP2;P2;SDS_P1;SDS_P2;PMS_P1;PMS_P2;Temp;Humidity;BMP_temperature;BMP_pressure;BME280_temperature;BME280_humidity;BME280_pressure;Samples;Min_cycle;Max_cycle;Signal;HPM_P1;HPM_P2
2022/11/11 00:01:55;;;;;;;;;;;;;;;;;;5056833;28;951;-79
2022/11/11 00:04:20;;;;;;;;;;;;;;;;;;5039589;28;1159;-79
2022/11/11 00:06:46;;;;;;;;;;;;;;;;;;5056587;28;1890;-78
2022/11/11 00:09:11;;;;;;;;;;;;;;;;;;5077575;28;1096;-78
2022/11/11 00:11:36;;;;;;;;;;;;;;;;;;5047088;28;1337;-78
2022/11/11 00:14:02;;;;;;;;;;;;;;;;;;5056835;28;824;-77
2022/11/11 00:25:04;;;;;;;;;;;;;;;;;;5056063;28;824;-77
2022/11/11 00:27:24;;;;;;;;;;;;;;;;;;5055891;28;1910;-78
2022/11/11 00:29:49;;;;;;;;;;;;;;;;;;5054353;28;1495;-78
2022/11/11 00:32:29;;;;;;;;;;;;;;;;;;5054807;28;1159;-78
2022/11/11 00:37:40;;;;;;;;;;;;;;;;;;5056205;28;882;-77
2022/11/11 00:40:06;;;;;;;;;;;;;;;;;;5054543;28;1078;-77
2022/11/11 00:42:31;;;;;;;;;;;;;;;;;;5037669;28;1163;-77
2022/11/11 00:44:56;;;;;;;;;;;;;;;;;;5054444;28;1065;-77
2022/11/11 00:52:55;;;;;;;;;;;;;;;;;;5056744;28;771;-77
2022/11/11 00:55:20;;;;;;;;;;;;;;;;;;5038309;28;1274;-77
2022/11/11 00:57:45;;;;;;;;;;;;;;;;;;5055097;28;1034;-78
2022/11/11 01:00:11;;;;;;;;;;;;;;;;;;5056814;28;872;-77
2022/11/11 01:02:36;;;;;;;;;;;;;;;;;;5038213;28;1240;-78
2022/11/11 01:05:01;;;;;;;;;;;;;;;;;;5055827;28;834;-77
2022/11/11 01:07:27;;;;;;;;;;;;;;;;;;5057572;28;1906;-77
2022/11/11 01:09:52;;;;;;;;;;;;;;;;;;5048811;28;964;-78
2022/11/11 01:12:17;;;;;;;;;;;;;;;;;;5064761;28;1376;-77
2022/11/11 01:14:43;;;;;;;;;;;;;;;;;;5055532;28;785;-78
2022/11/11 01:17:08;;;;;;;;;;;;;;;;;;5053807;28;971;-77
2022/11/11 01:19:34;;;;;;;;;;;;;;;;;;5053409;28;1266;-77
2022/11/11 01:21:59;;;;;;;;;;;;;;;;;;5055406;28;858;-78
2022/11/11 01:24:25;;;;;;;;;;;;;;;;;;5053479;28;1050;-77
2022/11/11 01:26:50;;;;;;;;;;;;;;;;;;5053944;28;1963;-78
2022/11/11 01:29:15;;;;;;;;;;;;;;;;;;5053503;28;1210;-78
2022/11/11 01:31:40;;;;;;;;;;;;;;;;;;5053997;28;1060;-78
2022/11/11 01:34:06;;;;;;;;;;;;;;;;;;5051789;28;1248;-78
2022/11/11 01:36:31;;;;;;;;;;;;;;;;;;5054369;28;888;-78
2022/11/11 01:38:58;;;;;;;;;;;;;;;;;;5053524;28;864;-78
2022/11/11 01:41:33;;;;;;;;;;;;;;;;;;5055699;28;837;-77
2022/11/11 01:44:13;;;;;;;;;;;;;;;;;;5053653;28;1171;-78
2022/11/11 01:46:44;;;;;;;;;;;;;;;;;;5054018;28;1910;-78
2022/11/11 01:49:19;;;;;;;;;;;;;;;;;;5053313;28;1048;-78
2022/11/11 01:52:03;;;;;;;;;;;;;;;;;;5053055;28;1183;-78
2022/11/11 01:54:31;;;;;;;;;;;;;;;;;;5054962;28;1038;-77
2022/11/11 01:57:15;;;;;;;;;;;;;;;;;;5055235;28;841;-77
2022/11/11 01:59:42;;;;;;;;;;;;;;;;;;5053746;28;1177;-77
2022/11/11 02:02:42;;;;;;;;;;;;;;;;;;5055293;28;946;-77
2022/11/11 02:07:54;;;;;;;;;;;;;;;;;;5054352;28;1910;-78
2022/11/11 02:10:21;;;;;;;;;;;;;;;;;;5054269;28;1046;-77
2022/11/11 02:15:30;;;;;;;;;;;;;;;;;;5054659;28;755;-79
2022/11/11 02:17:56;;;;;;;;;;;;;;;;;;5073383;28;1203;-77
2022/11/11 02:20:23;;;;;;;;;;;;;;;;;;5081541;28;1175;-77
2022/11/11 02:22:52;;;;;;;;;;;;;;;;;;5078754;28;1196;-77
2022/11/11 02:25:19;;;;;;;;;;;;;;;;;;5086272;22;3562;-68
2022/11/11 02:27:48;;;;;;;;;;;;;;;;;;5053712;28;1960;-68
2022/11/11 02:30:16;;;;;;;;;;;;;;;;;;5053909;28;1235;-68
2022/11/11 02:32:43;;;;;;;;;;;;;;;;;;5071488;28;849;-68
2022/11/11 02:35:14;;;;;;;;;;;;;;;;;;5071586;28;809;-68
2022/11/11 02:37:41;;;;;;;;;;;;;;;;;;5053053;28;1230;-68
2022/11/11 02:40:07;;;;;;;;;;;;;;;;;;5053432;28;1271;-68
2022/11/11 02:42:35;;;;;;;;;;;;;;;;;;5070783;28;845;-68
2022/11/11 02:45:00;;;;;;;;;;;;;;;;;;5071446;28;845;-68
2022/11/11 02:47:26;;;;;;;;;;;;;;;;;;5053016;28;1893;-69
2022/11/11 02:49:51;;;;;;;;;;;;;;;;;;5070636;28;880;-68
2022/11/11 02:52:16;;;;;;;;;;;;;;;;;;5071115;28;762;-69
2022/11/11 02:54:42;;;;;;;;;;;;;;;;;;5070479;28;916;-68
2022/11/11 02:57:07;;;;;;;;;;;;;;;;;;5053521;28;1287;-68
2022/11/11 02:59:37;;;;;;;;;;;;;;;;;;5052687;28;1250;-68
2022/11/11 03:02:03;;;;;;;;;;;;;;;;;;5070805;28;873;-68
2022/11/11 03:04:28;;;;;;;;;;;;;;;;;;5052843;28;1638;-68
2022/11/11 03:06:53;;;;;;;;;;;;;;;;;;5052499;28;1997;-68
2022/11/11 03:09:18;;;;;;;;;;;;;;;;;;5070881;28;868;-68
2022/11/11 03:11:44;;;;;;;;;;;;;;;;;;5051780;28;967;-68
2022/11/11 03:14:09;;;;;;;;;;;;;;;;;;5052895;28;1218;-68
2022/11/11 03:19:18;;;;;;;;;;;;;;;;;;5070762;28;710;-68
2022/11/11 03:21:44;;;;;;;;;;;;;;;;;;5051734;28;1358;-68
2022/11/11 03:24:09;;;;;;;;;;;;;;;;;;5070894;28;1066;-69
2022/11/11 03:26:34;;;;;;;;;;;;;;;;;;5069817;28;1894;-69
2022/11/11 03:29:00;;;;;;;;;;;;;;;;;;5070194;28;852;-69
2022/11/11 03:31:25;;;;;;;;;;;;;;;;;;5052534;28;969;-69
2022/11/11 03:33:50;;;;;;;;;;;;;;;;;;5051670;28;1193;-69
2022/11/11 03:36:15;;;;;;;;;;;;;;;;;;5035698;28;1216;-69
2022/11/11 03:38:41;;;;;;;;;;;;;;;;;;5051928;28;908;-68
2022/11/11 03:41:06;;;;;;;;;;;;;;;;;;5070574;28;848;-68
2022/11/11 03:43:32;;;;;;;;;;;;;;;;;;5070617;28;829;-69
2022/11/11 03:45:59;;;;;;;;;;;;;;;;;;5070542;28;755;-68
2022/11/11 03:48:25;;;;;;;;;;;;;;;;;;5071003;28;1987;-69
2022/11/11 03:50:51;;;;;;;;;;;;;;;;;;5069861;28;963;-69
2022/11/11 03:53:17;;;;;;;;;;;;;;;;;;5052586;28;1297;-69
2022/11/11 03:55:42;;;;;;;;;;;;;;;;;;5068187;28;1209;-69
2022/11/11 03:58:08;;;;;;;;;;;;;;;;;;5072602;28;1163;-69
2022/11/11 04:00:33;;;;;;;;;;;;;;;;;;5052315;28;1145;-69
2022/11/11 04:11:13;;;;;;;;;;;;;;;;;;5055563;28;619;-69
2022/11/11 04:16:27;;;;;;;;;;;;;;;;;;5055349;28;678;-70
2022/11/11 04:21:43;;;;;;;;;;;;;;;;;;5054757;28;752;-69
2022/11/11 04:27:01;;;;;;;;;;;;;;;;;;5054123;28;1910;-69
2022/11/11 04:29:29;;;;;;;;;;;;;;;;;;5053033;28;1243;-69
2022/11/11 04:34:39;;;;;;;;;;;;;;;;;;5053587;28;838;-69
2022/11/11 04:37:04;;;;;;;;;;;;;;;;;;5053489;28;924;-69
2022/11/11 04:42:13;;;;;;;;;;;;;;;;;;5053769;28;676;-68
2022/11/11 04:47:22;;;;;;;;;;;;;;;;;;5054053;28;1910;-68
2022/11/11 04:49:48;;;;;;;;;;;;;;;;;;5051586;28;1207;-68
2022/11/11 04:52:25;;;;;;;;;;;;;;;;;;5035163;28;1318;-69
2022/11/11 04:57:37;;;;;;;;;;;;;;;;;;5053620;28;627;-69
2022/11/11 05:00:03;;;;;;;;;;;;;;;;;;5053243;28;936;-69
2022/11/11 05:05:12;;;;;;;;;;;;;;;;;;5053169;28;658;-69
2022/11/11 05:10:22;;;;;;;;;;;;;;;;;;5051477;28;715;-69
2022/11/11 05:12:50;;;;;;;;;;;;;;;;;;5051279;28;813;-69
2022/11/11 05:25:24;;;;;;;;;;;;;;;;;;5053238;28;1034;-69
2022/11/11 05:26:16;;;;;;;;;;;;;;;;;;5052932;28;1977;-69
2022/11/11 05:28:41;;;;;;;;;;;;;;;;;;5052825;28;880;-69
2022/11/11 05:31:06;;;;;;;;;;;;;;;;;;5051799;28;1259;-69
2022/11/11 05:33:31;;;;;;;;;;;;;;;;;;5051825;28;976;-68
2022/11/11 05:35:57;;;;;;;;;;;;;;;;;;5050908;28;971;-68
2022/11/11 05:38:22;;;;;;;;;;;;;;;;;;5052198;28;1175;-68
2022/11/11 05:40:47;;;;;;;;;;;;;;;;;;5033793;28;1318;-68
2022/11/11 05:43:12;;;;;;;;;;;;;;;;;;5056459;28;1109;-68
2022/11/11 05:45:40;;;;;;;;;;;;;;;;;;5055165;28;1188;-69
2022/11/11 05:48:05;;;;;;;;;;;;;;;;;;5074974;28;1898;-69
2022/11/11 05:50:30;;;;;;;;;;;;;;;;;;5075489;28;1011;-68
2022/11/11 05:52:55;;;;;;;;;;;;;;;;;;5074141;28;916;-69
2022/11/11 05:55:21;;;;;;;;;;;;;;;;;;5093310;28;840;-68
2022/11/11 05:57:46;;;;;;;;;;;;;;;;;;5074724;28;1290;-68
2022/11/11 06:00:11;;;;;;;;;;;;;;;;;;5092828;28;733;-68
2022/11/11 06:02:37;;;;;;;;;;;;;;;;;;5091563;28;820;-68
2022/11/11 06:05:03;;;;;;;;;;;;;;;;;;5091768;28;904;-69
2022/11/11 06:07:28;;;;;;;;;;;;;;;;;;5056948;28;1959;-69
2022/11/11 06:10:29;;;;;;;;;;;;;;;;;;5073279;28;868;-69
2022/11/11 06:13:00;;;;;;;;;;;;;;;;;;5091795;28;931;-69
2022/11/11 06:15:32;;;;;;;;;;;;;;;;;;5092650;28;837;-69
2022/11/11 06:17:57;;;;;;;;;;;;;;;;;;5072767;28;1432;-69
2022/11/11 06:20:23;;;;;;;;;;;;;;;;;;5073230;28;1207;-69
2022/11/11 06:22:57;;;;;;;;;;;;;;;;;;5091859;28;940;-69
2022/11/11 06:28:10;;;;;;;;;;;;;;;;;;5092328;28;1910;-69
2022/11/11 06:30:36;;;;;;;;;;;;;;;;;;5073436;28;1448;-69
2022/11/11 06:33:01;;;;;;;;;;;;;;;;;;5090780;28;896;-70
2022/11/11 06:35:26;;;;;;;;;;;;;;;;;;5090173;28;1186;-69
2022/11/11 06:37:52;;;;;;;;;;;;;;;;;;5091086;28;911;-68
2022/11/11 06:40:17;;;;;;;;;;;;;;;;;;5056379;28;1112;-66
2022/11/11 06:42:42;;;;;;;;;;;;;;;;;;5091111;28;821;-68
2022/11/11 06:45:08;;;;;;;;;;;;;;;;;;5073233;28;948;-68
2022/11/11 06:47:33;;;;;;;;;;;;;;;;;;5091862;28;1902;-68
2022/11/11 06:49:58;;;;;;;;;;;;;;;;;;5090999;28;951;-69
2022/11/11 06:52:23;;;;;;;;;;;;;;;;;;5073471;28;892;-68
2022/11/11 06:54:51;;;;;;;;;;;;;;;;;;5073184;28;845;-68
2022/11/11 06:57:16;;;;;;;;;;;;;;;;;;5091759;28;982;-69
2022/11/11 06:59:41;;;;;;;;;;;;;;;;;;5073489;28;829;-69
2022/11/11 07:02:13;;;;;;;;;;;;;;;;;;5074006;28;880;-69
2022/11/11 07:04:38;;;;;;;;;;;;;;;;;;5092206;28;888;-69
2022/11/11 07:07:04;;;;;;;;;;;;;;;;;;5092631;28;1961;-69
2022/11/11 07:09:29;;;;;;;;;;;;;;;;;;5074896;28;1309;-69
2022/11/11 07:11:55;;;;;;;;;;;;;;;;;;5073504;28;1306;-69
2022/11/11 07:14:20;;;;;;;;;;;;;;;;;;5091638;28;837;-69
2022/11/11 07:16:45;;;;;;;;;;;;;;;;;;5073117;28;1082;-68
2022/11/11 07:19:10;;;;;;;;;;;;;;;;;;5073446;28;894;-69
2022/11/11 07:21:36;;;;;;;;;;;;;;;;;;5091750;28;1054;-69
2022/11/11 07:24:01;;;;;;;;;;;;;;;;;;5073133;28;1160;-68
2022/11/11 07:26:26;;;;;;;;;;;;;;;;;;5092064;28;1882;-69
2022/11/11 07:28:51;;;;;;;;;;;;;;;;;;5071716;28;1215;-69
2022/11/11 07:31:17;;;;;;;;;;;;;;;;;;5090248;28;916;-68
2022/11/11 07:33:42;;;;;;;;;;;;;;;;;;5072613;28;1325;-68
2022/11/11 07:36:07;;;;;;;;;;;;;;;;;;5073628;28;872;-68
2022/11/11 07:38:33;;;;;;;;;;;;;;;;;;5072538;28;908;-68
2022/11/11 07:40:58;;;;;;;;;;;;;;;;;;5090262;28;947;-68
2022/11/11 07:43:24;;;;;;;;;;;;;;;;;;5072454;28;1062;-68
2022/11/11 07:45:49;;;;;;;;;;;;;;;;;;5090294;28;864;-69
2022/11/11 07:48:15;;;;;;;;;;;;;;;;;;5091106;28;1913;-69
2022/11/11 07:50:40;;;;;;;;;;;;;;;;;;5072855;28;931;-69
2022/11/11 07:53:05;;;;;;;;;;;;;;;;;;5090362;28;844;-69
2022/11/11 07:55:30;;;;;;;;;;;;;;;;;;5091377;28;911;-69
2022/11/11 07:57:59;;;;;;;;;;;;;;;;;;5072694;28;1290;-69
2022/11/11 08:00:24;;;;;;;;;;;;;;;;;;5091385;28;876;-70
2022/11/11 08:02:50;;;;;;;;;;;;;;;;;;5071792;28;1219;-69
2022/11/11 08:05:15;;;;;;;;;;;;;;;;;;5071513;28;904;-69
2022/11/11 08:07:41;;;;;;;;;;;;;;;;;;5088854;28;1953;-69
2022/11/11 08:10:07;;;;;;;;;;;;;;;;;;5054335;28;1232;-69
2022/11/11 08:15:16;;;;;;;;;;;;;;;;;;5090501;28;693;-69
2022/11/11 08:17:43;;;;;;;;;;;;;;;;;;5072113;28;1458;-69
2022/11/11 08:20:08;;;;;;;;;;;;;;;;;;5072279;28;903;-69
2022/11/11 08:22:35;;;;;;;;;;;;;;;;;;5090164;28;1005;-69
2022/11/11 08:25:00;;;;;;;;;;;;;;;;;;5071297;28;1034;-69
2022/11/11 08:27:25;;;;;;;;;;;;;;;;;;5089540;28;1977;-69
2022/11/11 08:29:50;;;;;;;;;;;;;;;;;;5071680;28;884;-69
2022/11/11 08:32:15;;;;;;;;;;;;;;;;;;5071880;28;1476;-69
2022/11/11 08:34:41;;;;;;;;;;;;;;;;;;5090089;28;1197;-69
2022/11/11 08:37:06;;;;;;;;;;;;;;;;;;5072066;28;983;-69
2022/11/11 08:39:31;;;;;;;;;;;;;;;;;;5072182;28;1156;-69
2022/11/11 08:41:57;;;;;;;;;;;;;;;;;;5055025;28;1290;-69
2022/11/11 08:44:22;;;;;;;;;;;;;;;;;;5058217;28;1220;-69
2022/11/11 08:46:47;;;;;;;;;;;;;;;;;;5093571;28;1906;-69
2022/11/11 08:49:13;;;;;;;;;;;;;;;;;;5075742;28;1532;-69
2022/11/11 08:51:38;;;;;;;;;;;;;;;;;;5093940;28;868;-69
2022/11/11 08:54:04;;;;;;;;;;;;;;;;;;5058502;28;1200;-69
2022/11/11 08:56:29;;;;;;;;;;;;;;;;;;5092317;28;1257;-69
2022/11/11 08:58:54;;;;;;;;;;;;;;;;;;5074711;28;991;-69
2022/11/11 09:01:19;;;;;;;;;;;;;;;;;;5075427;28;1337;-70
2022/11/11 09:03:45;;;;;;;;;;;;;;;;;;5074676;28;992;-69
2022/11/11 09:06:10;;;;;;;;;;;;;;;;;;5075429;28;833;-69
2022/11/11 09:08:36;;;;;;;;;;;;;;;;;;5093773;28;1894;-68
2022/11/11 09:11:01;;;;;;;;;;;;;;;;;;5093496;28;786;-68
2022/11/11 09:13:26;;;;;;;;;;;;;;;;;;5075543;28;1417;-68
2022/11/11 09:15:52;;;;;;;;;;;;;;;;;;5075272;28;822;-68
2022/11/11 09:18:17;;;;;;;;;;;;;;;;;;5075466;28;1219;-68
2022/11/11 09:20:43;;;;;;;;;;;;;;;;;;5093168;28;912;-69
2022/11/11 09:23:08;;;;;;;;;;;;;;;;;;5075148;28;1366;-69
2022/11/11 09:25:33;;;;;;;;;;;;;;;;;;5092753;28;1265;-69
2022/11/11 09:28:00;;;;;;;;;;;;;;;;;;5074576;28;1910;-69
2022/11/11 09:30:26;;;;;;;;;;;;;;;;;;5074730;28;1396;-69
2022/11/11 09:32:51;;;;;;;;;;;;;;;;;;5092107;28;872;-69
2022/11/11 09:35:17;;;;;;;;;;;;;;;;;;5073732;28;1251;-69
2022/11/11 09:37:51;;;;;;;;;;;;;;;;;;5057772;28;1235;-69
2022/11/11 09:40:18;;;;;;;;;;;;;;;;;;5074360;28;1279;-69
2022/11/11 09:42:48;;;;;;;;;;;;;;;;;;5074295;28;1270;-69
2022/11/11 09:45:13;;;;;;;;;;;;;;;;;;5092773;28;875;-69
2022/11/11 09:47:57;;;;;;;;;;;;;;;;;;5074057;28;1968;-68
2022/11/11 09:50:24;;;;;;;;;;;;;;;;;;5074102;28;1301;-68
2022/11/11 09:52:53;;;;;;;;;;;;;;;;;;5090698;28;1338;-68
2022/11/11 09:55:18;;;;;;;;;;;;;;;;;;5073216;28;1199;-69
2022/11/11 09:57:47;;;;;;;;;;;;;;;;;;5092413;28;872;-69
2022/11/11 10:00:18;;;;;;;;;;;;;;;;;;5090707;28;1147;-68
2022/11/11 10:02:51;;;;;;;;;;;;;;;;;;5073437;28;1381;-69
2022/11/11 10:05:23;;;;;;;;;;;;;;;;;;5073688;28;1206;-69
2022/11/11 10:07:48;;;;;;;;;;;;;;;;;;5091843;28;1926;-69
2022/11/11 10:10:20;;;;;;;;;;;;;;;;;;5092522;28;1006;-69
2022/11/11 10:12:49;;;;;;;;;;;;;;;;;;5074192;28;1175;-69
2022/11/11 10:15:15;;;;;;;;;;;;;;;;;;5073964;28;1206;-69
2022/11/11 10:18:02;;;;;;;;;;;;;;;;;;5074300;28;920;-69
2022/11/11 10:20:30;;;;;;;;;;;;;;;;;;5092030;28;940;-69
2022/11/11 10:23:13;;;;;;;;;;;;;;;;;;5073510;28;1240;-69
2022/11/11 10:25:45;;;;;;;;;;;;;;;;;;5073522;28;1479;-69
2022/11/11 10:28:16;;;;;;;;;;;;;;;;;;5091681;28;1925;-69
2022/11/11 10:30:41;;;;;;;;;;;;;;;;;;5073900;28;1259;-69
2022/11/11 10:33:17;;;;;;;;;;;;;;;;;;5091512;28;896;-69
2022/11/11 10:35:44;;;;;;;;;;;;;;;;;;5092371;28;945;-69
2022/11/11 10:38:09;;;;;;;;;;;;;;;;;;5091766;28;911;-69
2022/11/11 10:40:47;;;;;;;;;;;;;;;;;;5091520;28;963;-69
2022/11/11 10:43:21;;;;;;;;;;;;;;;;;;5091966;28;837;-69
2022/11/11 10:45:58;;;;;;;;;;;;;;;;;;5091385;28;876;-69
2022/11/11 10:48:35;;;;;;;;;;;;;;;;;;5092737;28;1933;-69
2022/11/11 10:51:01;;;;;;;;;;;;;;;;;;5091962;28;895;-68
2022/11/11 10:53:42;;;;;;;;;;;;;;;;;;5074169;28;1235;-68
2022/11/11 10:56:13;;;;;;;;;;;;;;;;;;5074013;28;1333;-68
2022/11/11 10:58:39;;;;;;;;;;;;;;;;;;5091623;28;863;-68
2022/11/11 11:01:06;;;;;;;;;;;;;;;;;;5073243;28;1206;-68
2022/11/11 11:03:33;;;;;;;;;;;;;;;;;;5091004;28;770;-68
2022/11/11 11:06:05;;;;;;;;;;;;;;;;;;5090554;28;891;-68
2022/11/11 11:08:34;;;;;;;;;;;;;;;;;;5090983;28;1901;-68
2022/11/11 11:11:03;;;;;;;;;;;;;;;;;;5072801;28;1326;-68
2022/11/11 11:13:28;;;;;;;;;;;;;;;;;;5090967;28;872;-68
2022/11/11 11:15:56;;;;;;;;;;;;;;;;;;5090310;28;975;-68
2022/11/11 11:18:22;;;;;;;;;;;;;;;;;;5072587;28;1163;-68
2022/11/11 11:20:55;;;;;;;;;;;;;;;;;;5072106;28;1370;-68
2022/11/11 11:23:43;;;;;;;;;;;;;;;;;;5090773;28;1006;-68
2022/11/11 11:26:10;;;;;;;;;;;;;;;;;;5079172;28;1206;-68
2022/11/11 11:28:51;;;;;;;;;;;;;;;;;;5090331;28;1963;-68
2022/11/11 11:31:16;;;;;;;;;;;;;;;;;;5090824;28;1142;-68
2022/11/11 11:33:49;;;;;;;;;;;;;;;;;;5055967;28;1263;-68
2022/11/11 11:36:16;;;;;;;;;;;;;;;;;;5072820;28;1209;-69
2022/11/11 11:38:46;;;;;;;;;;;;;;;;;;5089647;28;1179;-69
2022/11/11 11:41:12;;;;;;;;;;;;;;;;;;5072793;28;1426;-69
2022/11/11 11:43:46;;;;;;;;;;;;;;;;;;5072388;28;1190;-69
2022/11/11 11:46:18;;;;;;;;;;;;;;;;;;5090626;28;896;-69
2022/11/11 11:48:52;;;;;;;;;;;;;;;;;;5089045;28;1910;-69
2022/11/11 11:51:21;;;;;;;;;;;;;;;;;;5090836;28;1014;-69
2022/11/11 11:54:05;;;;;;;;;;;;;;;;;;5071695;28;1227;-69
2022/11/11 11:56:30;;;;;;;;;;;;;;;;;;5090682;28;899;-69
2022/11/11 11:58:55;;;;;;;;;;;;;;;;;;5090399;28;908;-69
2022/11/11 12:01:33;;;;;;;;;;;;;;;;;;5090758;28;964;-67
2022/11/11 12:04:08;;;;;;;;;;;;;;;;;;5089951;28;1033;-67
2022/11/11 12:06:33;;;;;;;;;;;;;;;;;;5072812;28;1897;-67
2022/11/11 12:09:04;;;;;;;;;;;;;;;;;;5073034;28;1159;-68
2022/11/11 12:11:32;;;;;;;;;;;;;;;;;;5091180;28;737;-68
2022/11/11 12:14:23;;;;;;;;;;;;;;;;;;5073189;28;1415;-67
2022/11/11 12:16:54;;;;;;;;;;;;;;;;;;5090370;28;911;-67
2022/11/11 12:19:31;;;;;;;;;;;;;;;;;;5094462;28;833;-67
2022/11/11 12:22:03;;;;;;;;;;;;;;;;;;5095457;28;931;-67
2022/11/11 12:24:35;;;;;;;;;;;;;;;;;;5076768;28;1377;-68
2022/11/11 12:27:06;;;;;;;;;;;;;;;;;;5094613;28;1906;-67
2022/11/11 12:29:34;;;;;;;;;;;;;;;;;;5076699;28;1441;-67
2022/11/11 12:32:06;;;;;;;;;;;;;;;;;;5094897;28;848;-67
2022/11/11 12:34:47;;;;;;;;;;;;;;;;;;5076162;28;1298;-68
2022/11/11 12:37:41;;;;;;;;;;;;;;;;;;5094120;28;911;-68
2022/11/11 12:40:18;;;;;;;;;;;;;;;;;;5075446;28;1445;-68
2022/11/11 12:42:45;;;;;;;;;;;;;;;;;;5075912;28;1259;-69
2022/11/11 12:45:17;;;;;;;;;;;;;;;;;;5093522;28;829;-69
2022/11/11 12:47:52;;;;;;;;;;;;;;;;;;5092700;28;1947;-69
2022/11/11 12:50:23;;;;;;;;;;;;;;;;;;5094308;28;947;-69
2022/11/11 12:52:54;;;;;;;;;;;;;;;;;;5093407;28;1003;-69
2022/11/11 12:55:42;;;;;;;;;;;;;;;;;;5075164;28;1346;-69
2022/11/11 12:58:08;;;;;;;;;;;;;;;;;;5093061;28;1007;-69
2022/11/11 13:00:38;;;;;;;;;;;;;;;;;;5093434;28;770;-69
2022/11/11 13:03:22;;;;;;;;;;;;;;;;;;5075068;28;1359;-69
2022/11/11 13:05:48;;;;;;;;;;;;;;;;;;5093370;28;849;-68
2022/11/11 13:08:13;;;;;;;;;;;;;;;;;;5074984;28;1890;-68
2022/11/11 13:10:47;;;;;;;;;;;;;;;;;;5093670;28;888;-69
2022/11/11 13:13:18;;;;;;;;;;;;;;;;;;5075042;28;1262;-69
2022/11/11 13:15:43;;;;;;;;;;;;;;;;;;5074723;28;1212;-67
2022/11/11 13:18:15;;;;;;;;;;;;;;;;;;5093120;28;871;-69
2022/11/11 13:20:53;;;;;;;;;;;;;;;;;;5074639;28;1202;-68
2022/11/11 13:23:18;;;;;;;;;;;;;;;;;;5093352;28;933;-67
2022/11/11 13:25:49;;;;;;;;;;;;;;;;;;5074916;28;1056;-69
2022/11/11 13:28:27;;;;;;;;;;;;;;;;;;5093013;28;1905;-68
2022/11/11 13:31:11;;;;;;;;;;;;;;;;;;5091018;28;738;-68
2022/11/11 13:33:39;;;;;;;;;;;;;;;;;;5093134;28;912;-68
2022/11/11 13:36:06;;;;;;;;;;;;;;;;;;5092955;28;911;-68
2022/11/11 13:38:46;;;;;;;;;;;;;;;;;;5093368;28;860;-68
2022/11/11 13:41:12;;;;;;;;;;;;;;;;;;5092916;28;930;-68
2022/11/11 13:43:45;;;;;;;;;;;;;;;;;;5092967;28;840;-68
2022/11/11 13:46:33;;;;;;;;;;;;;;;;;;5092781;28;821;-68
2022/11/11 13:48:59;;;;;;;;;;;;;;;;;;5063172;28;1327;-68
2022/11/11 13:51:30;;;;;;;;;;;;;;;;;;5092884;28;961;-68
2022/11/11 13:53:57;;;;;;;;;;;;;;;;;;5092959;28;896;-68
2022/11/11 13:56:43;;;;;;;;;;;;;;;;;;5092344;28;1168;-68
2022/11/11 13:59:23;;;;;;;;;;;;;;;;;;5075148;28;1247;-68
2022/11/11 14:02:09;;;;;;;;;;;;;;;;;;5074276;28;1302;-68
2022/11/11 14:04:54;;;;;;;;;;;;;;;;;;5092368;28;1178;-68
2022/11/11 14:07:38;;;;;;;;;;;;;;;;;;5074116;28;1957;-68
2022/11/11 14:10:03;;;;;;;;;;;;;;;;;;5073236;28;1182;-68
2022/11/11 14:12:34;;;;;;;;;;;;;;;;;;5074126;28;1249;-68
2022/11/11 14:14:59;;;;;;;;;;;;;;;;;;5091728;28;789;-68
2022/11/11 14:17:26;;;;;;;;;;;;;;;;;;5073757;28;1156;-68
2022/11/11 14:19:51;;;;;;;;;;;;;;;;;;5072909;28;939;-68
2022/11/11 14:22:30;;;;;;;;;;;;;;;;;;5073946;28;1195;-68
2022/11/11 14:25:09;;;;;;;;;;;;;;;;;;5091145;28;1191;-68
2022/11/11 14:27:35;;;;;;;;;;;;;;;;;;5091597;28;1894;-68
2022/11/11 14:30:05;;;;;;;;;;;;;;;;;;5072851;28;1002;-68
2022/11/11 14:32:37;;;;;;;;;;;;;;;;;;5057238;28;1416;-68
2022/11/11 14:35:14;;;;;;;;;;;;;;;;;;5072781;28;1201;-68
2022/11/11 14:37:49;;;;;;;;;;;;;;;;;;5091935;28;946;-68
2022/11/11 14:40:35;;;;;;;;;;;;;;;;;;5091597;28;770;-68
2022/11/11 14:43:20;;;;;;;;;;;;;;;;;;5090592;28;1131;-68
2022/11/11 14:45:46;;;;;;;;;;;;;;;;;;5073212;28;1223;-68
2022/11/11 14:48:29;;;;;;;;;;;;;;;;;;5091440;28;1966;-68
2022/11/11 14:50:55;;;;;;;;;;;;;;;;;;5072633;28;1285;-68
2022/11/11 14:53:24;;;;;;;;;;;;;;;;;;5073714;28;909;-68
2022/11/11 14:55:54;;;;;;;;;;;;;;;;;;5089966;28;1320;-68
2022/11/11 14:58:20;;;;;;;;;;;;;;;;;;5091792;28;955;-68
2022/11/11 15:01:04;;;;;;;;;;;;;;;;;;5072866;28;1219;-68
2022/11/11 15:03:30;;;;;;;;;;;;;;;;;;5091528;28;871;-67
2022/11/11 15:05:59;;;;;;;;;;;;;;;;;;5090208;28;832;-67
2022/11/11 15:08:33;;;;;;;;;;;;;;;;;;5091315;28;1957;-67
2022/11/11 15:11:14;;;;;;;;;;;;;;;;;;5072451;28;1226;-66
2022/11/11 15:13:39;;;;;;;;;;;;;;;;;;5073080;28;1218;-66
2022/11/11 15:16:24;;;;;;;;;;;;;;;;;;5073199;28;1207;-67
2022/11/11 15:18:52;;;;;;;;;;;;;;;;;;5073002;28;1173;-67
2022/11/11 15:21:39;;;;;;;;;;;;;;;;;;5074191;28;1138;-67
2022/11/11 15:24:04;;;;;;;;;;;;;;;;;;5089152;28;1025;-67
2022/11/11 15:26:43;;;;;;;;;;;;;;;;;;5071555;28;1373;-67
2022/11/11 15:29:20;;;;;;;;;;;;;;;;;;5087688;28;1567;-67
2022/11/11 15:31:53;;;;;;;;;;;;;;;;;;5071596;28;1199;-67
2022/11/11 15:34:21;;;;;;;;;;;;;;;;;;5072649;28;1297;-67
2022/11/11 15:36:56;;;;;;;;;;;;;;;;;;5072063;28;1225;-67
2022/11/11 15:39:30;;;;;;;;;;;;;;;;;;5091011;28;868;-67
2022/11/11 15:41:56;;;;;;;;;;;;;;;;;;5090122;28;1027;-67
2022/11/11 15:44:26;;;;;;;;;;;;;;;;;;5072544;28;943;-66
2022/11/11 15:46:52;;;;;;;;;;;;;;;;;;5090265;28;1945;-66
2022/11/11 15:49:35;;;;;;;;;;;;;;;;;;5090730;28;856;-66
2022/11/11 15:52:01;;;;;;;;;;;;;;;;;;5089703;28;848;-67
2022/11/11 15:54:26;;;;;;;;;;;;;;;;;;5090485;28;817;-67
2022/11/11 15:56:53;;;;;;;;;;;;;;;;;;5071943;28;868;-67
2022/11/11 15:59:22;;;;;;;;;;;;;;;;;;5088754;28;1563;-67
2022/11/11 16:01:48;;;;;;;;;;;;;;;;;;5072240;28;1202;-67
2022/11/11 16:04:15;;;;;;;;;;;;;;;;;;5071928;28;1326;-67
2022/11/11 16:06:41;;;;;;;;;;;;;;;;;;5072461;28;1902;-66
2022/11/11 16:09:06;;;;;;;;;;;;;;;;;;5071815;28;825;-67
2022/11/11 16:11:32;;;;;;;;;;;;;;;;;;5090121;28;927;-67
2022/11/11 16:13:59;;;;;;;;;;;;;;;;;;5063237;28;1321;-67
2022/11/11 16:16:30;;;;;;;;;;;;;;;;;;5038127;28;1342;-67
2022/11/11 16:19:07;;;;;;;;;;;;;;;;;;5089616;28;856;-67
2022/11/11 16:21:35;;;;;;;;;;;;;;;;;;5089556;28;1017;-67
2022/11/11 16:24:01;;;;;;;;;;;;;;;;;;5089450;28;1112;-67
2022/11/11 16:26:27;;;;;;;;;;;;;;;;;;5071717;28;1168;-66
2022/11/11 16:28:54;;;;;;;;;;;;;;;;;;5071188;28;1985;-67
2022/11/11 16:31:19;;;;;;;;;;;;;;;;;;5090360;28;904;-67
2022/11/11 16:33:45;;;;;;;;;;;;;;;;;;5072234;28;1250;-66
2022/11/11 16:36:10;;;;;;;;;;;;;;;;;;5089702;28;1014;-67
2022/11/11 16:38:37;;;;;;;;;;;;;;;;;;5089961;28;841;-67
2022/11/11 16:41:03;;;;;;;;;;;;;;;;;;5070970;28;1219;-67
2022/11/11 16:43:41;;;;;;;;;;;;;;;;;;5071668;28;1340;-67
2022/11/11 16:46:08;;;;;;;;;;;;;;;;;;5090208;28;903;-67
2022/11/11 16:48:36;;;;;;;;;;;;;;;;;;5090666;28;1890;-67
2022/11/11 16:51:03;;;;;;;;;;;;;;;;;;5090308;28;884;-67
2022/11/11 16:53:33;;;;;;;;;;;;;;;;;;5091042;28;881;-67
2022/11/11 16:55:59;;;;;;;;;;;;;;;;;;5090154;28;876;-67
2022/11/11 16:58:25;;;;;;;;;;;;;;;;;;5090358;28;758;-67
2022/11/11 17:00:57;;;;;;;;;;;;;;;;;;5071654;28;1343;-67
2022/11/11 17:03:25;;;;;;;;;;;;;;;;;;5073411;28;1333;-67
2022/11/11 17:05:53;;;;;;;;;;;;;;;;;;5093855;28;758;-67
2022/11/11 17:08:33;;;;;;;;;;;;;;;;;;5071797;28;1969;-67
2022/11/11 17:10:59;;;;;;;;;;;;;;;;;;5052320;28;924;-67
2022/11/11 17:13:25;;;;;;;;;;;;;;;;;;5053250;28;884;-69
2022/11/11 17:15:51;;;;;;;;;;;;;;;;;;5035417;28;1128;-68
2022/11/11 17:18:17;;;;;;;;;;;;;;;;;;5034515;28;904;-68
2022/11/11 17:20:42;;;;;;;;;;;;;;;;;;5018877;28;1481;-69
2022/11/11 17:23:08;;;;;;;;;;;;;;;;;;5034765;28;907;-69
2022/11/11 17:25:33;;;;;;;;;;;;;;;;;;5034646;28;1142;-68
2022/11/11 17:27:59;;;;;;;;;;;;;;;;;;5034264;28;1985;-69
2022/11/11 17:30:24;;;;;;;;;;;;;;;;;;5035510;28;837;-68
2022/11/11 17:32:49;;;;;;;;;;;;;;;;;;5018409;28;1358;-69
2022/11/11 17:35:15;;;;;;;;;;;;;;;;;;5052364;28;1012;-69
2022/11/11 17:37:40;;;;;;;;;;;;;;;;;;5035499;28;1207;-69
2022/11/11 17:40:06;;;;;;;;;;;;;;;;;;5034634;28;1000;-68
2022/11/11 17:42:32;;;;;;;;;;;;;;;;;;5053262;28;1031;-68
2022/11/11 17:44:57;;;;;;;;;;;;;;;;;;5052523;28;881;-67
2022/11/11 17:47:23;;;;;;;;;;;;;;;;;;5034594;28;1909;-67
2022/11/11 17:49:48;;;;;;;;;;;;;;;;;;5035340;28;953;-67
2022/11/11 17:52:14;;;;;;;;;;;;;;;;;;5052220;28;825;-66
2022/11/11 17:54:40;;;;;;;;;;;;;;;;;;5035535;28;845;-66
2022/11/11 17:57:05;;;;;;;;;;;;;;;;;;5034562;28;1261;-66
2022/11/11 17:59:30;;;;;;;;;;;;;;;;;;5051820;28;1380;-67
2022/11/11 18:01:55;;;;;;;;;;;;;;;;;;5052623;28;932;-66
2022/11/11 18:04:21;;;;;;;;;;;;;;;;;;5034291;28;1493;-66
2022/11/11 18:06:46;;;;;;;;;;;;;;;;;;5052902;28;1953;-68
2022/11/11 18:09:12;;;;;;;;;;;;;;;;;;5052635;28;833;-68
2022/11/11 18:11:37;;;;;;;;;;;;;;;;;;5018654;28;1276;-68
2022/11/11 18:14:03;;;;;;;;;;;;;;;;;;5034811;28;1284;-69
2022/11/11 18:16:29;;;;;;;;;;;;;;;;;;5018756;28;1344;-69
2022/11/11 18:18:58;;;;;;;;;;;;;;;;;;5053751;28;861;-69
2022/11/11 18:21:24;;;;;;;;;;;;;;;;;;5035256;28;1525;-69
2022/11/11 18:23:49;;;;;;;;;;;;;;;;;;5019071;28;1258;-69
2022/11/11 18:26:14;;;;;;;;;;;;;;;;;;5034278;28;1145;-70
2022/11/11 18:28:39;;;;;;;;;;;;;;;;;;5053278;28;1906;-69
2022/11/11 18:31:09;;;;;;;;;;;;;;;;;;5018210;28;1310;-70
2022/11/11 18:33:36;;;;;;;;;;;;;;;;;;5053004;28;1062;-69